sensor_id;sensor_type;location;lat;lon;timestamp;P1;durP1;ratioP1;P2;durP2;ratioP2
86137;SDS011;76796;49.056;15.810;2024-03-02T00:02:05;104.68;;;49.05;;
86137;SDS011;76796;49.056;15.810;2024-03-02T00:04:31;102.70;;;47.67;;
86137;SDS011;76796;49.056;15.810;2024-03-02T00:07:03;103.18;;;48.85;;
86137;SDS011;76796;49.056;15.810;2024-03-02T00:09:29;104.88;;;48.38;;
86137;SDS011;76796;49.056;15.810;2024-03-02T00:11:55;92.20;;;43.58;;
86137;SDS011;76796;49.056;15.810;2024-03-02T00:14:21;101.72;;;47.47;;
86137;SDS011;76796;49.056;15.810;2024-03-02T00:16:46;96.38;;;44.60;;
86137;SDS011;76796;49.056;15.810;2024-03-02T00:19:12;89.70;;;44.47;;
86137;SDS011;76796;49.056;15.810;2024-03-02T00:21:37;100.82;;;45.83;;
86137;SDS011;76796;49.056;15.810;2024-03-02T00:26:59;93.90;;;44.53;;
86137;SDS011;76796;49.056;15.810;2024-03-02T00:29:25;95.43;;;44.38;;
86137;SDS011;76796;49.056;15.810;2024-03-02T00:31:52;97.50;;;46.50;;
86137;SDS011;76796;49.056;15.810;2024-03-02T00:34:18;94.28;;;43.47;;
86137;SDS011;76796;49.056;15.810;2024-03-02T00:36:44;94.38;;;47.45;;
86137;SDS011;76796;49.056;15.810;2024-03-02T00:39:17;103.63;;;48.67;;
86137;SDS011;76796;49.056;15.810;2024-03-02T00:41:43;105.88;;;47.60;;
86137;SDS011;76796;49.056;15.810;2024-03-02T00:44:11;92.78;;;42.40;;
86137;SDS011;76796;49.056;15.810;2024-03-02T00:46:41;91.13;;;43.67;;
86137;SDS011;76796;49.056;15.810;2024-03-02T00:49:21;89.43;;;43.92;;
86137;SDS011;76796;49.056;15.810;2024-03-02T00:51:48;103.47;;;44.63;;
86137;SDS011;76796;49.056;15.810;2024-03-02T00:54:18;93.65;;;44.63;;
86137;SDS011;76796;49.056;15.810;2024-03-02T00:56:52;105.22;;;46.05;;
86137;SDS011;76796;49.056;15.810;2024-03-02T00:59:24;106.90;;;46.97;;
86137;SDS011;76796;49.056;15.810;2024-03-02T01:01:49;103.90;;;48.67;;
86137;SDS011;76796;49.056;15.810;2024-03-02T01:04:15;103.68;;;46.80;;
86137;SDS011;76796;49.056;15.810;2024-03-02T01:06:44;94.75;;;46.15;;
86137;SDS011;76796;49.056;15.810;2024-03-02T01:09:09;96.38;;;44.10;;
86137;SDS011;76796;49.056;15.810;2024-03-02T01:11:37;96.93;;;43.72;;
86137;SDS011;76796;49.056;15.810;2024-03-02T01:14:08;98.15;;;44.38;;
86137;SDS011;76796;49.056;15.810;2024-03-02T01:16:34;92.10;;;43.33;;
86137;SDS011;76796;49.056;15.810;2024-03-02T01:18:59;92.13;;;43.13;;
86137;SDS011;76796;49.056;15.810;2024-03-02T01:21:25;103.43;;;46.08;;
86137;SDS011;76796;49.056;15.810;2024-03-02T01:23:50;100.35;;;45.83;;
86137;SDS011;76796;49.056;15.810;2024-03-02T01:26:16;101.10;;;47.88;;
86137;SDS011;76796;49.056;15.810;2024-03-02T01:28:42;102.75;;;45.25;;
86137;SDS011;76796;49.056;15.810;2024-03-02T01:31:13;104.15;;;46.95;;
86137;SDS011;76796;49.056;15.810;2024-03-02T01:33:39;103.00;;;46.15;;
86137;SDS011;76796;49.056;15.810;2024-03-02T01:36:04;104.88;;;46.10;;
86137;SDS011;76796;49.056;15.810;2024-03-02T01:38:30;108.70;;;47.67;;
86137;SDS011;76796;49.056;15.810;2024-03-02T01:40:56;111.10;;;46.60;;
86137;SDS011;76796;49.056;15.810;2024-03-02T01:43:22;113.63;;;48.35;;
86137;SDS011;76796;49.056;15.810;2024-03-02T01:45:47;112.65;;;48.72;;
86137;SDS011;76796;49.056;15.810;2024-03-02T01:48:19;112.00;;;49.00;;
86137;SDS011;76796;49.056;15.810;2024-03-02T01:50:45;114.63;;;48.50;;
86137;SDS011;76796;49.056;15.810;2024-03-02T01:53:11;115.18;;;49.15;;
86137;SDS011;76796;49.056;15.810;2024-03-02T01:55:44;100.95;;;47.13;;
86137;SDS011;76796;49.056;15.810;2024-03-02T01:58:23;119.50;;;50.17;;
86137;SDS011;76796;49.056;15.810;2024-03-02T02:00:49;102.97;;;46.03;;
86137;SDS011;76796;49.056;15.810;2024-03-02T02:03:15;115.05;;;48.05;;
86137;SDS011;76796;49.056;15.810;2024-03-02T02:05:47;122.65;;;50.75;;
86137;SDS011;76796;49.056;15.810;2024-03-02T02:08:13;118.22;;;49.40;;
86137;SDS011;76796;49.056;15.810;2024-03-02T02:10:39;119.78;;;48.63;;
86137;SDS011;76796;49.056;15.810;2024-03-02T02:13:04;116.57;;;47.22;;
86137;SDS011;76796;49.056;15.810;2024-03-02T02:15:30;112.20;;;49.25;;
86137;SDS011;76796;49.056;15.810;2024-03-02T02:17:57;118.65;;;50.85;;
86137;SDS011;76796;49.056;15.810;2024-03-02T02:20:23;109.45;;;47.75;;
86137;SDS011;76796;49.056;15.810;2024-03-02T02:22:57;112.68;;;48.05;;
86137;SDS011;76796;49.056;15.810;2024-03-02T02:25:30;106.65;;;49.25;;
86137;SDS011;76796;49.056;15.810;2024-03-02T02:27:56;113.82;;;45.67;;
86137;SDS011;76796;49.056;15.810;2024-03-02T02:30:23;111.75;;;49.50;;
86137;SDS011;76796;49.056;15.810;2024-03-02T02:35:16;120.22;;;50.85;;
86137;SDS011;76796;49.056;15.810;2024-03-02T02:37:41;110.55;;;49.10;;
86137;SDS011;76796;49.056;15.810;2024-03-02T02:40:15;119.28;;;50.95;;
86137;SDS011;76796;49.056;15.810;2024-03-02T02:42:41;105.13;;;47.72;;
86137;SDS011;76796;49.056;15.810;2024-03-02T02:45:06;108.55;;;48.55;;
86137;SDS011;76796;49.056;15.810;2024-03-02T02:47:32;125.03;;;49.38;;
86137;SDS011;76796;49.056;15.810;2024-03-02T02:52:32;106.55;;;45.58;;
86137;SDS011;76796;49.056;15.810;2024-03-02T02:55:04;119.10;;;49.00;;
86137;SDS011;76796;49.056;15.810;2024-03-02T02:57:44;107.15;;;48.38;;
86137;SDS011;76796;49.056;15.810;2024-03-02T03:00:14;114.68;;;46.15;;
86137;SDS011;76796;49.056;15.810;2024-03-02T03:02:41;123.50;;;48.47;;
86137;SDS011;76796;49.056;15.810;2024-03-02T03:05:08;121.32;;;50.42;;
86137;SDS011;76796;49.056;15.810;2024-03-02T03:07:35;108.93;;;48.28;;
86137;SDS011;76796;49.056;15.810;2024-03-02T03:10:02;116.05;;;47.22;;
86137;SDS011;76796;49.056;15.810;2024-03-02T03:12:33;117.32;;;47.92;;
86137;SDS011;76796;49.056;15.810;2024-03-02T03:15:05;110.63;;;46.58;;
86137;SDS011;76796;49.056;15.810;2024-03-02T03:17:32;106.05;;;45.67;;
86137;SDS011;76796;49.056;15.810;2024-03-02T03:19:57;102.20;;;45.50;;
86137;SDS011;76796;49.056;15.810;2024-03-02T03:22:23;113.18;;;45.17;;
86137;SDS011;76796;49.056;15.810;2024-03-02T03:24:48;107.88;;;44.95;;
86137;SDS011;76796;49.056;15.810;2024-03-02T03:27:14;109.07;;;46.30;;
86137;SDS011;76796;49.056;15.810;2024-03-02T03:29:39;100.97;;;45.88;;
86137;SDS011;76796;49.056;15.810;2024-03-02T03:32:12;95.78;;;41.05;;
86137;SDS011;76796;49.056;15.810;2024-03-02T03:34:37;100.65;;;44.40;;
86137;SDS011;76796;49.056;15.810;2024-03-02T03:37:03;103.63;;;44.15;;
86137;SDS011;76796;49.056;15.810;2024-03-02T03:39:28;104.53;;;43.60;;
86137;SDS011;76796;49.056;15.810;2024-03-02T03:41:54;92.55;;;39.50;;
86137;SDS011;76796;49.056;15.810;2024-03-02T03:44:20;97.63;;;43.28;;
86137;SDS011;76796;49.056;15.810;2024-03-02T03:46:45;93.32;;;40.35;;
86137;SDS011;76796;49.056;15.810;2024-03-02T03:49:18;95.60;;;42.15;;
86137;SDS011;76796;49.056;15.810;2024-03-02T03:51:43;89.60;;;40.88;;
86137;SDS011;76796;49.056;15.810;2024-03-02T03:54:09;104.00;;;43.67;;
86137;SDS011;76796;49.056;15.810;2024-03-02T03:56:36;94.78;;;38.78;;
86137;SDS011;76796;49.056;15.810;2024-03-02T03:59:09;89.20;;;39.65;;
86137;SDS011;76796;49.056;15.810;2024-03-02T04:01:35;93.78;;;41.25;;
86137;SDS011;76796;49.056;15.810;2024-03-02T04:04:02;94.00;;;41.03;;
86137;SDS011;76796;49.056;15.810;2024-03-02T04:06:35;91.80;;;39.47;;
86137;SDS011;76796;49.056;15.810;2024-03-02T04:09:00;95.13;;;41.28;;
86137;SDS011;76796;49.056;15.810;2024-03-02T04:11:27;98.47;;;41.97;;
86137;SDS011;76796;49.056;15.810;2024-03-02T04:13:52;86.80;;;38.88;;
86137;SDS011;76796;49.056;15.810;2024-03-02T04:16:17;95.57;;;40.17;;
86137;SDS011;76796;49.056;15.810;2024-03-02T04:18:43;87.90;;;37.45;;
86137;SDS011;76796;49.056;15.810;2024-03-02T04:21:09;96.28;;;43.70;;
86137;SDS011;76796;49.056;15.810;2024-03-02T04:23:41;92.13;;;38.50;;
86137;SDS011;76796;49.056;15.810;2024-03-02T04:26:06;89.00;;;37.47;;
86137;SDS011;76796;49.056;15.810;2024-03-02T04:28:31;88.53;;;37.20;;
86137;SDS011;76796;49.056;15.810;2024-03-02T04:30:58;91.30;;;39.15;;
86137;SDS011;76796;49.056;15.810;2024-03-02T04:33:23;90.68;;;35.45;;
86137;SDS011;76796;49.056;15.810;2024-03-02T04:35:49;87.78;;;37.17;;
86137;SDS011;76796;49.056;15.810;2024-03-02T04:38:14;93.50;;;37.88;;
86137;SDS011;76796;49.056;15.810;2024-03-02T04:40:46;85.03;;;36.38;;
86137;SDS011;76796;49.056;15.810;2024-03-02T04:43:11;87.47;;;37.70;;
86137;SDS011;76796;49.056;15.810;2024-03-02T04:45:40;84.32;;;35.47;;
86137;SDS011;76796;49.056;15.810;2024-03-02T04:48:06;78.82;;;33.88;;
86137;SDS011;76796;49.056;15.810;2024-03-02T04:50:32;78.75;;;35.97;;
86137;SDS011;76796;49.056;15.810;2024-03-02T04:52:58;90.57;;;38.38;;
86137;SDS011;76796;49.056;15.810;2024-03-02T04:55:23;87.88;;;38.70;;
86137;SDS011;76796;49.056;15.810;2024-03-02T04:58:17;97.93;;;37.55;;
86137;SDS011;76796;49.056;15.810;2024-03-02T05:00:43;96.70;;;41.05;;
86137;SDS011;76796;49.056;15.810;2024-03-02T05:03:11;101.53;;;38.90;;
86137;SDS011;76796;49.056;15.810;2024-03-02T05:05:36;86.65;;;37.42;;
86137;SDS011;76796;49.056;15.810;2024-03-02T05:08:03;93.75;;;38.13;;
86137;SDS011;76796;49.056;15.810;2024-03-02T05:10:29;88.65;;;38.30;;
86137;SDS011;76796;49.056;15.810;2024-03-02T05:12:55;102.75;;;40.28;;
86137;SDS011;76796;49.056;15.810;2024-03-02T05:15:31;96.75;;;41.30;;
86137;SDS011;76796;49.056;15.810;2024-03-02T05:17:56;95.45;;;41.38;;
86137;SDS011;76796;49.056;15.810;2024-03-02T05:20:23;101.07;;;42.05;;
86137;SDS011;76796;49.056;15.810;2024-03-02T05:22:48;104.10;;;41.17;;
86137;SDS011;76796;49.056;15.810;2024-03-02T05:25:14;100.30;;;39.88;;
86137;SDS011;76796;49.056;15.810;2024-03-02T05:27:40;104.75;;;41.80;;
86137;SDS011;76796;49.056;15.810;2024-03-02T05:30:06;99.63;;;39.22;;
86137;SDS011;76796;49.056;15.810;2024-03-02T05:32:39;104.45;;;40.30;;
86137;SDS011;76796;49.056;15.810;2024-03-02T05:35:04;101.93;;;42.20;;
86137;SDS011;76796;49.056;15.810;2024-03-02T05:37:30;91.35;;;36.83;;
86137;SDS011;76796;49.056;15.810;2024-03-02T05:39:56;106.95;;;41.58;;
86137;SDS011;76796;49.056;15.810;2024-03-02T05:42:21;93.63;;;38.03;;
86137;SDS011;76796;49.056;15.810;2024-03-02T05:44:47;90.03;;;39.05;;
86137;SDS011;76796;49.056;15.810;2024-03-02T05:47:12;89.28;;;38.17;;
86137;SDS011;76796;49.056;15.810;2024-03-02T05:49:45;91.07;;;37.45;;
86137;SDS011;76796;49.056;15.810;2024-03-02T05:52:10;89.88;;;36.85;;
86137;SDS011;76796;49.056;15.810;2024-03-02T05:54:36;87.65;;;37.28;;
86137;SDS011;76796;49.056;15.810;2024-03-02T05:57:02;96.30;;;37.95;;
86137;SDS011;76796;49.056;15.810;2024-03-02T05:59:53;83.65;;;36.53;;
86137;SDS011;76796;49.056;15.810;2024-03-02T06:02:19;79.82;;;35.85;;
86137;SDS011;76796;49.056;15.810;2024-03-02T06:04:45;85.20;;;36.25;;
86137;SDS011;76796;49.056;15.810;2024-03-02T06:07:17;84.90;;;35.17;;
86137;SDS011;76796;49.056;15.810;2024-03-02T06:09:42;81.47;;;35.83;;
86137;SDS011;76796;49.056;15.810;2024-03-02T06:12:09;83.57;;;34.88;;
86137;SDS011;76796;49.056;15.810;2024-03-02T06:14:35;88.30;;;36.03;;
86137;SDS011;76796;49.056;15.810;2024-03-02T06:17:00;100.43;;;38.20;;
86137;SDS011;76796;49.056;15.810;2024-03-02T06:19:33;96.20;;;39.40;;
86137;SDS011;76796;49.056;15.810;2024-03-02T06:21:58;79.45;;;36.55;;
86137;SDS011;76796;49.056;15.810;2024-03-02T06:24:31;79.25;;;35.55;;
86137;SDS011;76796;49.056;15.810;2024-03-02T06:26:56;88.80;;;37.70;;
86137;SDS011;76796;49.056;15.810;2024-03-02T06:29:22;85.10;;;36.50;;
86137;SDS011;76796;49.056;15.810;2024-03-02T06:31:48;82.53;;;35.50;;
86137;SDS011;76796;49.056;15.810;2024-03-02T06:34:13;84.47;;;34.30;;
86137;SDS011;76796;49.056;15.810;2024-03-02T06:36:39;77.18;;;34.80;;
86137;SDS011;76796;49.056;15.810;2024-03-02T06:39:05;83.78;;;36.05;;
86137;SDS011;76796;49.056;15.810;2024-03-02T06:41:37;73.15;;;32.65;;
86137;SDS011;76796;49.056;15.810;2024-03-02T06:44:02;78.18;;;33.88;;
86137;SDS011;76796;49.056;15.810;2024-03-02T06:46:28;72.10;;;31.63;;
86137;SDS011;76796;49.056;15.810;2024-03-02T06:48:54;72.25;;;31.38;;
86137;SDS011;76796;49.056;15.810;2024-03-02T06:51:19;74.82;;;32.60;;
86137;SDS011;76796;49.056;15.810;2024-03-02T06:53:45;78.28;;;33.70;;
86137;SDS011;76796;49.056;15.810;2024-03-02T06:56:11;65.90;;;30.90;;
86137;SDS011;76796;49.056;15.810;2024-03-02T06:58:44;68.50;;;30.05;;
86137;SDS011;76796;49.056;15.810;2024-03-02T07:01:10;67.82;;;30.98;;
86137;SDS011;76796;49.056;15.810;2024-03-02T07:03:35;70.70;;;31.55;;
86137;SDS011;76796;49.056;15.810;2024-03-02T07:06:01;69.68;;;30.95;;
86137;SDS011;76796;49.056;15.810;2024-03-02T07:08:27;72.45;;;31.23;;
86137;SDS011;76796;49.056;15.810;2024-03-02T07:10:52;70.47;;;31.02;;
86137;SDS011;76796;49.056;15.810;2024-03-02T07:13:18;68.57;;;31.55;;
86137;SDS011;76796;49.056;15.810;2024-03-02T07:15:50;64.78;;;30.10;;
86137;SDS011;76796;49.056;15.810;2024-03-02T07:18:27;66.60;;;30.48;;
86137;SDS011;76796;49.056;15.810;2024-03-02T07:20:53;64.40;;;30.13;;
86137;SDS011;76796;49.056;15.810;2024-03-02T07:23:18;71.15;;;32.38;;
86137;SDS011;76796;49.056;15.810;2024-03-02T07:25:45;63.88;;;30.75;;
86137;SDS011;76796;49.056;15.810;2024-03-02T07:28:11;66.32;;;30.70;;
86137;SDS011;76796;49.056;15.810;2024-03-02T07:30:36;62.10;;;29.42;;
86137;SDS011;76796;49.056;15.810;2024-03-02T07:33:10;75.03;;;31.30;;
86137;SDS011;76796;49.056;15.810;2024-03-02T07:35:36;61.45;;;30.55;;
86137;SDS011;76796;49.056;15.810;2024-03-02T07:38:01;64.18;;;28.42;;
86137;SDS011;76796;49.056;15.810;2024-03-02T07:40:27;57.38;;;26.17;;
86137;SDS011;76796;49.056;15.810;2024-03-02T07:42:52;62.08;;;26.92;;
86137;SDS011;76796;49.056;15.810;2024-03-02T07:45:18;62.08;;;28.52;;
86137;SDS011;76796;49.056;15.810;2024-03-02T07:47:43;59.95;;;28.13;;
86137;SDS011;76796;49.056;15.810;2024-03-02T07:50:16;64.95;;;29.48;;
86137;SDS011;76796;49.056;15.810;2024-03-02T07:52:41;70.45;;;31.05;;
86137;SDS011;76796;49.056;15.810;2024-03-02T07:55:07;69.47;;;29.73;;
86137;SDS011;76796;49.056;15.810;2024-03-02T07:57:39;67.95;;;31.00;;
86137;SDS011;76796;49.056;15.810;2024-03-02T08:00:05;70.40;;;31.08;;
86137;SDS011;76796;49.056;15.810;2024-03-02T08:02:31;71.03;;;30.60;;
86137;SDS011;76796;49.056;15.810;2024-03-02T08:04:57;70.70;;;34.38;;
86137;SDS011;76796;49.056;15.810;2024-03-02T08:07:29;79.72;;;35.17;;
86137;SDS011;76796;49.056;15.810;2024-03-02T08:09:55;71.82;;;32.63;;
86137;SDS011;76796;49.056;15.810;2024-03-02T08:12:20;76.57;;;34.92;;
86137;SDS011;76796;49.056;15.810;2024-03-02T08:14:48;84.43;;;33.28;;
86137;SDS011;76796;49.056;15.810;2024-03-02T08:17:14;63.85;;;29.17;;
86137;SDS011;76796;49.056;15.810;2024-03-02T08:19:39;64.70;;;28.67;;
86137;SDS011;76796;49.056;15.810;2024-03-02T08:22:06;59.20;;;28.05;;
86137;SDS011;76796;49.056;15.810;2024-03-02T08:24:38;61.30;;;27.45;;
86137;SDS011;76796;49.056;15.810;2024-03-02T08:27:03;62.20;;;28.10;;
86137;SDS011;76796;49.056;15.810;2024-03-02T08:29:29;57.33;;;26.27;;
86137;SDS011;76796;49.056;15.810;2024-03-02T08:31:55;60.42;;;28.40;;
86137;SDS011;76796;49.056;15.810;2024-03-02T08:34:20;60.72;;;29.15;;
86137;SDS011;76796;49.056;15.810;2024-03-02T08:36:46;58.03;;;25.35;;
86137;SDS011;76796;49.056;15.810;2024-03-02T08:39:11;61.47;;;28.40;;
86137;SDS011;76796;49.056;15.810;2024-03-02T08:41:47;56.33;;;27.25;;
86137;SDS011;76796;49.056;15.810;2024-03-02T08:44:13;64.85;;;31.05;;
86137;SDS011;76796;49.056;15.810;2024-03-02T08:46:39;68.57;;;31.20;;
86137;SDS011;76796;49.056;15.810;2024-03-02T08:49:05;71.85;;;32.35;;
86137;SDS011;76796;49.056;15.810;2024-03-02T08:51:31;69.45;;;30.17;;
86137;SDS011;76796;49.056;15.810;2024-03-02T08:53:57;64.15;;;29.25;;
86137;SDS011;76796;49.056;15.810;2024-03-02T08:56:23;63.95;;;29.77;;
86137;SDS011;76796;49.056;15.810;2024-03-02T08:58:56;57.20;;;27.85;;
86137;SDS011;76796;49.056;15.810;2024-03-02T09:01:22;63.78;;;29.33;;
86137;SDS011;76796;49.056;15.810;2024-03-02T09:03:48;65.72;;;29.83;;
86137;SDS011;76796;49.056;15.810;2024-03-02T09:06:16;60.08;;;29.13;;
86137;SDS011;76796;49.056;15.810;2024-03-02T09:08:43;61.80;;;28.67;;
86137;SDS011;76796;49.056;15.810;2024-03-02T09:11:09;60.88;;;29.05;;
86137;SDS011;76796;49.056;15.810;2024-03-02T09:13:35;67.60;;;29.83;;
86137;SDS011;76796;49.056;15.810;2024-03-02T09:16:08;64.50;;;32.22;;
86137;SDS011;76796;49.056;15.810;2024-03-02T09:18:36;61.00;;;28.83;;
86137;SDS011;76796;49.056;15.810;2024-03-02T09:21:01;62.47;;;31.30;;
86137;SDS011;76796;49.056;15.810;2024-03-02T09:23:28;58.30;;;28.27;;
86137;SDS011;76796;49.056;15.810;2024-03-02T09:25:54;55.78;;;27.63;;
86137;SDS011;76796;49.056;15.810;2024-03-02T09:28:19;51.90;;;25.88;;
86137;SDS011;76796;49.056;15.810;2024-03-02T09:30:45;58.58;;;27.83;;
86137;SDS011;76796;49.056;15.810;2024-03-02T09:33:17;64.00;;;30.85;;
86137;SDS011;76796;49.056;15.810;2024-03-02T09:35:42;68.45;;;31.38;;
86137;SDS011;76796;49.056;15.810;2024-03-02T09:38:08;73.00;;;35.15;;
86137;SDS011;76796;49.056;15.810;2024-03-02T09:40:33;63.55;;;31.80;;
86137;SDS011;76796;49.056;15.810;2024-03-02T09:42:59;69.70;;;33.35;;
86137;SDS011;76796;49.056;15.810;2024-03-02T09:45:26;66.65;;;33.40;;
86137;SDS011;76796;49.056;15.810;2024-03-02T09:47:51;68.25;;;32.65;;
86137;SDS011;76796;49.056;15.810;2024-03-02T09:50:26;71.90;;;33.90;;
86137;SDS011;76796;49.056;15.810;2024-03-02T09:52:52;66.80;;;32.45;;
86137;SDS011;76796;49.056;15.810;2024-03-02T09:55:19;76.88;;;36.60;;
86137;SDS011;76796;49.056;15.810;2024-03-02T09:57:46;76.80;;;36.03;;
86137;SDS011;76796;49.056;15.810;2024-03-02T10:00:18;86.80;;;41.45;;
86137;SDS011;76796;49.056;15.810;2024-03-02T10:02:44;77.43;;;37.08;;
86137;SDS011;76796;49.056;15.810;2024-03-02T10:05:09;80.38;;;36.72;;
86137;SDS011;76796;49.056;15.810;2024-03-02T10:07:43;78.20;;;37.75;;
86137;SDS011;76796;49.056;15.810;2024-03-02T10:10:26;72.60;;;35.08;;
86137;SDS011;76796;49.056;15.810;2024-03-02T10:13:07;67.22;;;34.35;;
86137;SDS011;76796;49.056;15.810;2024-03-02T10:15:33;73.47;;;34.95;;
86137;SDS011;76796;49.056;15.810;2024-03-02T10:17:59;75.30;;;36.28;;
86137;SDS011;76796;49.056;15.810;2024-03-02T10:20:25;76.18;;;38.67;;
86137;SDS011;76796;49.056;15.810;2024-03-02T10:25:36;73.80;;;34.50;;
86137;SDS011;76796;49.056;15.810;2024-03-02T10:28:02;75.57;;;36.92;;
86137;SDS011;76796;49.056;15.810;2024-03-02T10:30:30;79.95;;;37.10;;
86137;SDS011;76796;49.056;15.810;2024-03-02T10:32:55;70.57;;;35.40;;
86137;SDS011;76796;49.056;15.810;2024-03-02T10:35:24;65.57;;;33.83;;
86137;SDS011;76796;49.056;15.810;2024-03-02T10:37:51;53.97;;;28.48;;
86137;SDS011;76796;49.056;15.810;2024-03-02T10:40:27;55.45;;;30.15;;
86137;SDS011;76796;49.056;15.810;2024-03-02T10:42:52;68.10;;;33.45;;
86137;SDS011;76796;49.056;15.810;2024-03-02T10:45:19;58.42;;;30.05;;
86137;SDS011;76796;49.056;15.810;2024-03-02T10:47:49;57.25;;;29.42;;
86137;SDS011;76796;49.056;15.810;2024-03-02T10:50:15;59.63;;;31.67;;
86137;SDS011;76796;49.056;15.810;2024-03-02T10:52:41;59.50;;;30.75;;
86137;SDS011;76796;49.056;15.810;2024-03-02T10:55:07;60.15;;;32.05;;
86137;SDS011;76796;49.056;15.810;2024-03-02T10:57:42;55.92;;;28.65;;
86137;SDS011;76796;49.056;15.810;2024-03-02T11:00:26;57.55;;;30.17;;
86137;SDS011;76796;49.056;15.810;2024-03-02T11:03:03;58.50;;;30.42;;
86137;SDS011;76796;49.056;15.810;2024-03-02T11:05:35;57.03;;;29.83;;
86137;SDS011;76796;49.056;15.810;2024-03-02T11:08:07;50.97;;;28.83;;
86137;SDS011;76796;49.056;15.810;2024-03-02T11:10:39;52.97;;;28.40;;
86137;SDS011;76796;49.056;15.810;2024-03-02T11:13:19;58.72;;;30.58;;
86137;SDS011;76796;49.056;15.810;2024-03-02T11:15:49;56.75;;;31.88;;
86137;SDS011;76796;49.056;15.810;2024-03-02T11:18:20;52.78;;;28.83;;
86137;SDS011;76796;49.056;15.810;2024-03-02T11:20:46;56.10;;;32.00;;
86137;SDS011;76796;49.056;15.810;2024-03-02T11:23:13;57.70;;;30.55;;
86137;SDS011;76796;49.056;15.810;2024-03-02T11:25:39;64.32;;;33.42;;
86137;SDS011;76796;49.056;15.810;2024-03-02T11:28:05;62.67;;;34.60;;
86137;SDS011;76796;49.056;15.810;2024-03-02T11:33:07;66.80;;;33.47;;
86137;SDS011;76796;49.056;15.810;2024-03-02T11:35:33;60.20;;;32.13;;
86137;SDS011;76796;49.056;15.810;2024-03-02T11:38:00;59.90;;;33.25;;
86137;SDS011;76796;49.056;15.810;2024-03-02T11:40:27;65.47;;;32.97;;
86137;SDS011;76796;49.056;15.810;2024-03-02T11:42:53;62.97;;;33.90;;
86137;SDS011;76796;49.056;15.810;2024-03-02T11:45:23;64.43;;;32.78;;
86137;SDS011;76796;49.056;15.810;2024-03-02T11:47:59;72.05;;;37.25;;
86137;SDS011;76796;49.056;15.810;2024-03-02T11:50:29;66.13;;;33.95;;
86137;SDS011;76796;49.056;15.810;2024-03-02T11:52:56;62.85;;;32.58;;
86137;SDS011;76796;49.056;15.810;2024-03-02T11:55:24;69.85;;;34.33;;
86137;SDS011;76796;49.056;15.810;2024-03-02T11:57:57;68.18;;;34.03;;
86137;SDS011;76796;49.056;15.810;2024-03-02T12:00:24;65.43;;;35.65;;
86137;SDS011;76796;49.056;15.810;2024-03-02T12:03:00;66.38;;;34.60;;
86137;SDS011;76796;49.056;15.810;2024-03-02T12:05:33;71.10;;;35.67;;
86137;SDS011;76796;49.056;15.810;2024-03-02T12:08:04;71.20;;;36.70;;
86137;SDS011;76796;49.056;15.810;2024-03-02T12:10:34;65.05;;;33.92;;
86137;SDS011;76796;49.056;15.810;2024-03-02T12:15:27;60.85;;;33.15;;
86137;SDS011;76796;49.056;15.810;2024-03-02T12:17:57;65.63;;;33.50;;
86137;SDS011;76796;49.056;15.810;2024-03-02T12:20:24;68.90;;;34.80;;
86137;SDS011;76796;49.056;15.810;2024-03-02T12:22:58;68.55;;;34.90;;
86137;SDS011;76796;49.056;15.810;2024-03-02T12:25:24;63.25;;;32.47;;
86137;SDS011;76796;49.056;15.810;2024-03-02T12:27:52;70.65;;;35.40;;
86137;SDS011;76796;49.056;15.810;2024-03-02T12:30:20;75.15;;;36.60;;
86137;SDS011;76796;49.056;15.810;2024-03-02T12:32:46;71.28;;;36.63;;
86137;SDS011;76796;49.056;15.810;2024-03-02T12:35:13;74.00;;;35.88;;
86137;SDS011;76796;49.056;15.810;2024-03-02T12:37:42;73.70;;;40.55;;
86137;SDS011;76796;49.056;15.810;2024-03-02T12:40:18;72.50;;;37.90;;
86137;SDS011;76796;49.056;15.810;2024-03-02T12:42:45;70.22;;;38.55;;
86137;SDS011;76796;49.056;15.810;2024-03-02T12:45:12;66.68;;;38.17;;
86137;SDS011;76796;49.056;15.810;2024-03-02T12:47:41;66.10;;;35.90;;
86137;SDS011;76796;49.056;15.810;2024-03-02T12:50:08;67.28;;;36.15;;
86137;SDS011;76796;49.056;15.810;2024-03-02T12:52:35;67.10;;;36.15;;
86137;SDS011;76796;49.056;15.810;2024-03-02T12:55:02;67.65;;;35.45;;
86137;SDS011;76796;49.056;15.810;2024-03-02T12:57:39;68.97;;;37.30;;
86137;SDS011;76796;49.056;15.810;2024-03-02T13:00:11;65.35;;;37.00;;
86137;SDS011;76796;49.056;15.810;2024-03-02T13:02:39;63.90;;;35.05;;
86137;SDS011;76796;49.056;15.810;2024-03-02T13:05:06;60.15;;;33.15;;
86137;SDS011;76796;49.056;15.810;2024-03-02T13:07:37;55.17;;;31.80;;
86137;SDS011;76796;49.056;15.810;2024-03-02T13:10:03;58.58;;;34.20;;
86137;SDS011;76796;49.056;15.810;2024-03-02T13:12:29;57.40;;;33.03;;
86137;SDS011;76796;49.056;15.810;2024-03-02T13:15:02;66.68;;;36.60;;
86137;SDS011;76796;49.056;15.810;2024-03-02T13:17:29;62.25;;;34.38;;
86137;SDS011;76796;49.056;15.810;2024-03-02T13:19:55;60.03;;;34.13;;
86137;SDS011;76796;49.056;15.810;2024-03-02T13:22:21;61.88;;;34.38;;
86137;SDS011;76796;49.056;15.810;2024-03-02T13:24:48;59.85;;;33.67;;
86137;SDS011;76796;49.056;15.810;2024-03-02T13:27:14;61.78;;;36.28;;
86137;SDS011;76796;49.056;15.810;2024-03-02T13:29:39;67.22;;;36.13;;
86137;SDS011;76796;49.056;15.810;2024-03-02T13:32:12;62.03;;;35.70;;
86137;SDS011;76796;49.056;15.810;2024-03-02T13:34:38;62.70;;;36.58;;
86137;SDS011;76796;49.056;15.810;2024-03-02T13:37:03;63.72;;;34.65;;
86137;SDS011;76796;49.056;15.810;2024-03-02T13:39:31;61.20;;;36.50;;
86137;SDS011;76796;49.056;15.810;2024-03-02T13:41:59;62.10;;;35.08;;
86137;SDS011;76796;49.056;15.810;2024-03-02T13:44:30;61.15;;;36.08;;
86137;SDS011;76796;49.056;15.810;2024-03-02T13:46:56;56.72;;;35.17;;
86137;SDS011;76796;49.056;15.810;2024-03-02T13:49:29;55.30;;;32.75;;
86137;SDS011;76796;49.056;15.810;2024-03-02T13:52:08;56.88;;;34.03;;
86137;SDS011;76796;49.056;15.810;2024-03-02T13:54:42;59.25;;;33.50;;
86137;SDS011;76796;49.056;15.810;2024-03-02T13:57:16;59.35;;;35.28;;
86137;SDS011;76796;49.056;15.810;2024-03-02T13:59:45;57.97;;;33.47;;
86137;SDS011;76796;49.056;15.810;2024-03-02T14:02:11;62.95;;;35.13;;
86137;SDS011;76796;49.056;15.810;2024-03-02T14:04:43;59.03;;;32.25;;
86137;SDS011;76796;49.056;15.810;2024-03-02T14:07:09;53.58;;;33.88;;
86137;SDS011;76796;49.056;15.810;2024-03-02T14:09:37;54.33;;;30.65;;
86137;SDS011;76796;49.056;15.810;2024-03-02T14:12:03;55.80;;;30.38;;
86137;SDS011;76796;49.056;15.810;2024-03-02T14:14:30;54.60;;;32.42;;
86137;SDS011;76796;49.056;15.810;2024-03-02T14:16:55;54.65;;;31.73;;
86137;SDS011;76796;49.056;15.810;2024-03-02T14:19:21;55.33;;;31.30;;
86137;SDS011;76796;49.056;15.810;2024-03-02T14:21:53;50.38;;;30.25;;
86137;SDS011;76796;49.056;15.810;2024-03-02T14:24:19;49.47;;;29.50;;
86137;SDS011;76796;49.056;15.810;2024-03-02T14:26:45;54.25;;;32.58;;